createdAt,value
2023-03-14T00:02:01.599Z,6.38
2023-03-14T00:04:35.823Z,6.36
2023-03-14T00:07:08.379Z,6.33
2023-03-14T00:09:40.698Z,6.31
2023-03-14T00:12:14.720Z,6.36
2023-03-14T00:14:47.417Z,6.37
2023-03-14T00:17:20.785Z,6.39
2023-03-14T00:19:55.030Z,6.37
2023-03-14T00:22:28.759Z,6.35
2023-03-14T00:25:01.334Z,6.31
2023-03-14T00:27:33.983Z,6.27
2023-03-14T00:30:09.154Z,6.23
2023-03-14T00:32:43.265Z,6.21
2023-03-14T00:35:16.113Z,6.16
2023-03-14T00:37:48.520Z,6.08
2023-03-14T00:40:20.916Z,6.07
2023-03-14T00:42:53.712Z,6.06
2023-03-14T00:45:26.385Z,6.07
2023-03-14T00:47:58.758Z,6.05
2023-03-14T00:50:31.672Z,6.04
2023-03-14T00:53:04.816Z,6.02
2023-03-14T00:55:43.443Z,5.96
2023-03-14T00:58:18.253Z,5.91
2023-03-14T01:00:51.219Z,5.90
2023-03-14T01:03:25.262Z,5.90
2023-03-14T01:06:01.537Z,5.89
2023-03-14T01:08:34.208Z,5.86
2023-03-14T01:11:11.857Z,5.86
2023-03-14T01:13:45.782Z,5.83
2023-03-14T01:16:19.007Z,5.78
2023-03-14T01:18:52.104Z,5.74
2023-03-14T01:21:28.625Z,5.71
2023-03-14T01:24:02.181Z,5.68
2023-03-14T01:26:36.246Z,5.64
2023-03-14T01:29:08.983Z,5.62
2023-03-14T01:31:42.889Z,5.61
2023-03-14T01:34:16.163Z,5.56
2023-03-14T01:36:48.897Z,5.56
2023-03-14T01:39:21.855Z,5.56
2023-03-14T01:41:54.824Z,5.57
2023-03-14T01:44:27.977Z,5.56
2023-03-14T01:47:00.517Z,5.55
2023-03-14T01:49:37.240Z,5.54
2023-03-14T01:52:16.313Z,5.53
2023-03-14T01:54:58.228Z,5.52
2023-03-14T01:57:58.761Z,5.52
2023-03-14T02:00:31.362Z,5.47
2023-03-14T02:03:09.313Z,5.43
2023-03-14T02:05:44.209Z,5.41
2023-03-14T02:08:22.553Z,5.38
2023-03-14T02:11:02.489Z,5.36
2023-03-14T02:13:46.757Z,5.27
2023-03-14T02:16:19.566Z,5.21
2023-03-14T02:19:02.985Z,5.17
2023-03-14T02:22:06.528Z,5.14
2023-03-14T02:24:54.604Z,5.11
2023-03-14T02:27:27.562Z,5.14
2023-03-14T02:30:19.486Z,5.11
2023-03-14T02:33:07.629Z,5.11
2023-03-14T02:35:47.828Z,5.07
2023-03-14T02:38:38.073Z,5.05
2023-03-14T02:41:11.527Z,5.05
2023-03-14T02:43:47.178Z,5.02
2023-03-14T02:46:23.598Z,5.00
2023-03-14T02:49:02.297Z,4.97
2023-03-14T02:51:36.765Z,4.96
2023-03-14T02:54:10.757Z,4.93
2023-03-14T02:56:43.606Z,4.92
2023-03-14T02:59:18.352Z,4.91
2023-03-14T03:01:52.388Z,4.88
2023-03-14T03:04:24.725Z,4.84
2023-03-14T03:06:57.570Z,4.83
2023-03-14T03:09:30.752Z,4.77
2023-03-14T03:12:03.247Z,4.73
2023-03-14T03:14:38.740Z,4.69
2023-03-14T03:17:11.290Z,4.65
2023-03-14T03:19:43.771Z,4.61
2023-03-14T03:22:16.277Z,4.52
2023-03-14T03:24:49.073Z,4.49
2023-03-14T03:27:21.406Z,4.49
2023-03-14T03:29:54.149Z,4.47
2023-03-14T03:32:27.036Z,4.45
2023-03-14T03:35:00.309Z,4.42
2023-03-14T03:37:34.449Z,4.39
2023-03-14T03:40:08.834Z,4.36
2023-03-14T03:42:41.549Z,4.31
2023-03-14T03:45:15.073Z,4.31
2023-03-14T03:47:49.944Z,4.30
2023-03-14T03:50:22.589Z,4.27
2023-03-14T03:52:54.970Z,4.24
2023-03-14T03:55:29.143Z,4.22
2023-03-14T03:58:01.579Z,4.19
2023-03-14T04:00:34.373Z,4.16
2023-03-14T04:03:06.720Z,4.17
2023-03-14T04:05:40.857Z,4.17
2023-03-14T04:08:15.719Z,4.11
2023-03-14T04:10:50.367Z,4.06
2023-03-14T04:13:24.755Z,4.05
2023-03-14T04:15:59.498Z,4.02
2023-03-14T04:18:33.819Z,4.00
2023-03-14T04:21:06.907Z,3.99
2023-03-14T04:23:40.917Z,3.99
2023-03-14T04:26:14.604Z,4.02
2023-03-14T04:28:47.209Z,4.04
2023-03-14T04:31:22.468Z,4.02
2023-03-14T04:33:55.889Z,3.99
2023-03-14T04:36:33.042Z,4.02
2023-03-14T04:39:07.242Z,4.20
2023-03-14T04:41:42.223Z,4.32
2023-03-14T04:44:15.907Z,4.32
2023-03-14T04:46:48.992Z,4.37
2023-03-14T04:49:22.791Z,4.49
2023-03-14T04:51:56.108Z,4.72
2023-03-14T04:54:30.498Z,4.99
2023-03-14T04:57:05.588Z,5.20
2023-03-14T04:59:40.756Z,5.42
2023-03-14T05:02:15.507Z,5.59
2023-03-14T05:04:49.775Z,5.75
2023-03-14T05:07:42.268Z,6.04
2023-03-14T05:10:16.434Z,6.32
2023-03-14T05:12:50.884Z,6.54
2023-03-14T05:15:25.361Z,6.78
2023-03-14T05:17:57.736Z,7.00
2023-03-14T05:20:33.590Z,7.22
2023-03-14T05:23:19.612Z,7.32
2023-03-14T05:26:09.978Z,7.29
2023-03-14T05:28:47.499Z,6.96
2023-03-14T05:31:21.847Z,6.95
2023-03-14T05:33:59.038Z,7.29
2023-03-14T05:36:51.809Z,7.73
2023-03-14T05:39:55.494Z,8.25
2023-03-14T05:42:47.856Z,8.84
2023-03-14T05:45:21.937Z,9.22
2023-03-14T05:47:56.163Z,9.42
2023-03-14T05:50:30.413Z,9.30
2023-03-14T05:53:16.506Z,8.81
2023-03-14T05:55:58.262Z,8.28
2023-03-14T05:58:33.584Z,7.90
2023-03-14T06:01:08.632Z,7.59
2023-03-14T06:03:42.787Z,7.43
2023-03-14T06:06:15.490Z,7.36
2023-03-14T06:08:48.530Z,7.25
2023-03-14T06:11:21.747Z,7.23
2023-03-14T06:13:54.773Z,7.32
2023-03-14T06:16:27.234Z,7.46
2023-03-14T06:19:00.219Z,7.52
2023-03-14T06:21:34.566Z,7.47
2023-03-14T06:24:07.496Z,7.35
2023-03-14T06:26:40.975Z,7.26
2023-03-14T06:29:14.698Z,7.21
2023-03-14T06:31:48.160Z,7.20
2023-03-14T06:34:21.548Z,7.11
2023-03-14T06:36:54.065Z,7.11
2023-03-14T06:39:26.430Z,7.04
2023-03-14T06:42:00.935Z,6.98
2023-03-14T06:44:33.913Z,6.92
2023-03-14T06:47:06.512Z,6.95
2023-03-14T06:49:40.546Z,7.00
2023-03-14T06:52:14.043Z,7.05
2023-03-14T06:54:46.979Z,7.18
2023-03-14T06:57:19.948Z,7.18
2023-03-14T06:59:53.273Z,7.15
2023-03-14T07:02:39.771Z,7.17
2023-03-14T07:05:00.153Z,7.11
2023-03-14T07:07:32.877Z,7.14
2023-03-14T07:10:06.777Z,7.20
2023-03-14T07:12:40.832Z,7.30
2023-03-14T07:15:19.056Z,7.40
2023-03-14T07:17:49.822Z,7.54
2023-03-14T07:20:24.513Z,7.83
2023-03-14T07:22:57.459Z,8.20
2023-03-14T07:25:37.924Z,8.54
2023-03-14T07:28:11.928Z,8.93
2023-03-14T07:30:47.979Z,9.46
2023-03-14T07:33:25.581Z,10.06
2023-03-14T07:35:58.324Z,10.47
2023-03-14T07:38:30.980Z,10.88
2023-03-14T07:41:07.143Z,11.28
2023-03-14T07:43:48.863Z,11.58
2023-03-14T07:46:22.808Z,11.87
2023-03-14T07:48:55.704Z,12.08
2023-03-14T07:51:29.162Z,12.31
2023-03-14T07:54:02.179Z,12.51
2023-03-14T07:56:34.739Z,12.67
2023-03-14T07:59:07.270Z,12.82
2023-03-14T08:01:39.753Z,12.71
2023-03-14T08:04:13.105Z,12.57
2023-03-14T08:06:45.943Z,12.65
2023-03-14T08:09:18.394Z,12.71
2023-03-14T08:11:51.503Z,12.80
2023-03-14T08:14:25.841Z,12.86
2023-03-14T08:17:00.102Z,12.98
2023-03-14T08:19:33.333Z,13.05
2023-03-14T08:22:05.912Z,13.22
2023-03-14T08:24:38.731Z,13.48
2023-03-14T08:27:11.541Z,13.66
2023-03-14T08:29:44.882Z,13.82
2023-03-14T08:32:17.495Z,13.77
2023-03-14T08:34:50.106Z,13.77
2023-03-14T08:37:26.693Z,13.80
2023-03-14T08:39:57.312Z,14.05
2023-03-14T08:42:32.229Z,14.16
2023-03-14T08:45:06.495Z,14.36
2023-03-14T08:47:39.523Z,14.64
2023-03-14T08:50:16.196Z,14.75
2023-03-14T08:52:48.822Z,14.59
2023-03-14T08:55:21.884Z,14.46
2023-03-14T08:57:54.658Z,14.46
2023-03-14T09:00:28.025Z,14.44
2023-03-14T09:03:00.590Z,14.64
2023-03-14T09:05:37.786Z,14.99
2023-03-14T09:08:11.943Z,14.89
2023-03-14T09:10:44.566Z,14.69
2023-03-14T09:13:17.104Z,14.74
2023-03-14T09:15:57.881Z,14.98
2023-03-14T09:18:30.760Z,15.25
2023-03-14T09:21:03.510Z,15.33
2023-03-14T09:23:36.166Z,15.39
2023-03-14T09:26:08.881Z,15.40
2023-03-14T09:28:42.030Z,15.35
2023-03-14T09:31:14.772Z,15.25
2023-03-14T09:33:47.688Z,15.12
2023-03-14T09:36:20.306Z,15.02
2023-03-14T09:38:53.083Z,15.03
2023-03-14T09:41:39.254Z,15.15
2023-03-14T09:44:25.142Z,15.31
2023-03-14T09:50:07.035Z,15.95
2023-03-14T09:52:41.014Z,16.07
2023-03-14T09:55:36.646Z,16.20
2023-03-14T09:58:18.553Z,15.97
2023-03-14T10:00:54.166Z,15.70
2023-03-14T10:03:34.156Z,15.75
2023-03-14T10:06:11.630Z,16.10
2023-03-14T10:08:45.390Z,16.36
2023-03-14T10:11:20.606Z,16.60
2023-03-14T10:14:13.305Z,16.71
2023-03-14T10:16:47.558Z,16.82
2023-03-14T10:19:20.969Z,16.76
2023-03-14T10:21:55.578Z,16.66
2023-03-14T10:24:29.964Z,16.56
2023-03-14T10:27:31.443Z,16.52
2023-03-14T10:30:09.642Z,16.61
2023-03-14T10:32:43.409Z,16.60
2023-03-14T10:35:23.014Z,16.63
2023-03-14T10:37:58.792Z,16.40
2023-03-14T10:40:36.486Z,16.08
2023-03-14T10:43:11.779Z,16.08
2023-03-14T10:45:46.241Z,16.17
2023-03-14T10:48:33.851Z,16.19
2023-03-14T10:51:13.152Z,16.33
2023-03-14T10:54:00.251Z,16.45
2023-03-14T10:56:38.475Z,16.64
2023-03-14T10:59:15.961Z,16.94
2023-03-14T11:02:22.858Z,17.04
2023-03-14T11:05:19.601Z,16.91
2023-03-14T11:07:52.890Z,16.64
2023-03-14T11:10:56.268Z,16.51
2023-03-14T11:13:36.722Z,16.72
2023-03-14T11:16:31.266Z,17.16
2023-03-14T11:19:57.357Z,17.61
2023-03-14T11:23:15.577Z,17.81
2023-03-14T11:26:11.829Z,17.54
2023-03-14T11:28:51.491Z,17.45
2023-03-14T11:31:38.217Z,17.33
2023-03-14T11:34:28.272Z,17.19
2023-03-14T11:37:10.941Z,17.11
2023-03-14T11:42:46.540Z,17.33
2023-03-14T11:45:24.462Z,17.32
2023-03-14T11:48:05.779Z,17.49
2023-03-14T11:50:38.599Z,17.43
2023-03-14T11:53:42.763Z,17.28
2023-03-14T11:56:31.919Z,17.15
2023-03-14T11:59:29.330Z,16.71
2023-03-14T12:02:07.788Z,16.36
2023-03-14T12:05:01.449Z,16.23
2023-03-14T12:07:54.063Z,16.25
2023-03-14T12:10:28.363Z,16.03
2023-03-14T12:13:01.065Z,15.89
2023-03-14T12:15:35.755Z,15.67
2023-03-14T12:18:21.372Z,15.53
2023-03-14T12:21:03.733Z,15.22
2023-03-14T12:23:53.464Z,14.75
2023-03-14T12:26:35.744Z,14.44
2023-03-14T12:29:12.377Z,14.24
2023-03-14T12:31:50.977Z,14.11
2023-03-14T12:34:28.289Z,14.08
2023-03-14T12:37:20.580Z,14.09
2023-03-14T12:40:18.730Z,14.00
2023-03-14T12:43:00.940Z,13.89
2023-03-14T12:45:34.663Z,13.71
2023-03-14T12:48:25.248Z,13.62
2023-03-14T12:51:06.772Z,13.48
2023-03-14T12:53:50.256Z,13.31
2023-03-14T12:57:00.790Z,13.24
2023-03-14T12:59:49.621Z,13.26
2023-03-14T13:02:28.528Z,13.30
2023-03-14T13:05:09.062Z,13.29
2023-03-14T13:07:53.686Z,13.23
2023-03-14T13:10:37.941Z,13.15
2023-03-14T13:13:28.250Z,13.13
2023-03-14T13:16:06.156Z,13.12
2023-03-14T13:18:45.939Z,13.10
2023-03-14T13:21:26.723Z,13.12
2023-03-14T13:24:04.935Z,13.13
2023-03-14T13:26:44.625Z,13.15
2023-03-14T13:29:29.581Z,13.17
2023-03-14T13:32:06.591Z,13.15
2023-03-14T13:34:39.268Z,13.16
2023-03-14T13:37:24.512Z,13.16
2023-03-14T13:39:59.837Z,13.12
2023-03-14T13:42:38.637Z,13.07
2023-03-14T13:45:19.573Z,13.06
2023-03-14T13:47:53.466Z,13.03
2023-03-14T13:50:26.049Z,13.00
2023-03-14T13:52:59.474Z,12.97
2023-03-14T13:55:34.036Z,12.93
2023-03-14T13:58:11.034Z,12.90
2023-03-14T14:00:44.156Z,12.86
2023-03-14T14:03:16.906Z,12.81
2023-03-14T14:05:49.367Z,12.77
2023-03-14T14:08:22.542Z,12.74
2023-03-14T14:11:02.119Z,12.68
2023-03-14T14:13:36.254Z,12.66
2023-03-14T14:16:09.929Z,12.65
2023-03-14T14:18:45.375Z,12.61
2023-03-14T14:21:18.436Z,12.60
2023-03-14T14:23:51.141Z,12.56
2023-03-14T14:26:23.571Z,12.56
2023-03-14T14:29:07.318Z,12.55
2023-03-14T14:31:40.238Z,12.51
2023-03-14T14:34:21.862Z,12.48
2023-03-14T14:36:54.495Z,12.49
2023-03-14T14:39:30.178Z,12.58
2023-03-14T14:42:04.084Z,12.65
2023-03-14T14:44:37.671Z,12.69
2023-03-14T14:47:15.311Z,12.73
2023-03-14T14:49:48.974Z,12.73
2023-03-14T14:52:33.804Z,12.73
2023-03-14T14:55:15.309Z,12.71
2023-03-14T14:57:58.268Z,12.67
2023-03-14T15:00:31.567Z,12.59
2023-03-14T15:03:04.342Z,12.57
2023-03-14T15:05:38.166Z,12.52
2023-03-14T15:08:14.918Z,12.46
2023-03-14T15:10:47.367Z,12.37
2023-03-14T15:13:20.132Z,12.28
2023-03-14T15:15:59.541Z,12.22
2023-03-14T15:18:32.864Z,12.16
2023-03-14T15:21:05.757Z,12.11
2023-03-14T15:23:38.790Z,12.03
2023-03-14T15:26:19.980Z,11.96
2023-03-14T15:28:52.981Z,11.94
2023-03-14T15:31:25.485Z,11.90
2023-03-14T15:33:57.952Z,11.84
2023-03-14T15:36:33.205Z,11.79
2023-03-14T15:39:07.903Z,11.75
2023-03-14T15:41:40.395Z,11.69
2023-03-14T15:44:12.863Z,11.66
2023-03-14T15:46:45.485Z,11.63
2023-03-14T15:49:18.021Z,11.59
2023-03-14T15:51:51.127Z,11.53
2023-03-14T15:54:23.785Z,11.47
2023-03-14T15:56:57.348Z,11.43
2023-03-14T15:59:30.803Z,11.39
2023-03-14T16:02:04.536Z,11.34
2023-03-14T16:04:37.148Z,11.32
2023-03-14T16:07:10.142Z,11.30
2023-03-14T16:09:43.287Z,11.28
2023-03-14T16:12:16.708Z,11.23
2023-03-14T16:14:50.738Z,11.20
2023-03-14T16:17:23.118Z,11.13
2023-03-14T16:22:41.236Z,11.04
2023-03-14T16:25:14.039Z,11.01
2023-03-14T16:27:46.731Z,10.97
2023-03-14T16:30:20.864Z,10.95
2023-03-14T16:32:53.568Z,10.91
2023-03-14T16:35:26.190Z,10.85
2023-03-14T16:38:02.369Z,10.80
2023-03-14T16:40:35.518Z,10.77
2023-03-14T16:43:15.938Z,10.73
2023-03-14T16:45:43.233Z,10.71
2023-03-14T16:48:15.904Z,10.70
2023-03-14T16:50:51.477Z,10.66
2023-03-14T16:53:27.102Z,10.64
2023-03-14T16:56:00.739Z,10.63
2023-03-14T16:58:34.913Z,10.59
2023-03-14T17:01:12.979Z,10.56
2023-03-14T17:03:48.501Z,10.54
2023-03-14T17:06:26.493Z,10.55
2023-03-14T17:08:59.885Z,10.53
2023-03-14T17:11:34.205Z,10.50
2023-03-14T17:14:08.139Z,10.47
2023-03-14T17:16:40.932Z,10.46
2023-03-14T17:19:14.922Z,10.43
2023-03-14T17:21:48.715Z,10.41
2023-03-14T17:24:21.808Z,10.40
2023-03-14T17:26:54.483Z,10.36
2023-03-14T17:29:27.390Z,10.33
2023-03-14T17:31:59.950Z,10.33
2023-03-14T17:34:32.654Z,10.30
2023-03-14T17:37:05.318Z,10.25
2023-03-14T17:39:39.862Z,10.24
2023-03-14T17:42:12.579Z,10.22
2023-03-14T17:44:46.322Z,10.20
2023-03-14T17:47:20.686Z,10.21
2023-03-14T17:49:55.350Z,10.21
2023-03-14T17:52:28.074Z,10.20
2023-03-14T17:55:01.445Z,10.18
2023-03-14T17:57:42.769Z,10.17
2023-03-14T18:00:17.389Z,10.15
2023-03-14T18:02:50.092Z,10.16
2023-03-14T18:05:23.548Z,10.15
2023-03-14T18:07:57.085Z,10.13
2023-03-14T18:10:30.634Z,10.12
2023-03-14T18:13:03.318Z,10.11
2023-03-14T18:15:35.731Z,10.11
2023-03-14T18:18:09.346Z,10.11
2023-03-14T18:20:43.314Z,10.08
2023-03-14T18:23:15.732Z,10.06
2023-03-14T18:25:50.243Z,10.05
2023-03-14T18:28:23.750Z,10.06
2023-03-14T18:31:07.365Z,10.04
2023-03-14T18:33:42.412Z,10.00
2023-03-14T18:36:17.349Z,9.95
2023-03-14T18:38:53.136Z,9.94
2023-03-14T18:41:26.673Z,9.93
2023-03-14T18:44:00.620Z,9.90
2023-03-14T18:46:34.142Z,9.86
2023-03-14T18:49:10.590Z,9.82
2023-03-14T18:51:44.615Z,9.80
2023-03-14T18:54:20.043Z,9.77
2023-03-14T18:56:53.734Z,9.74
2023-03-14T18:59:26.714Z,9.71
2023-03-14T19:02:00.862Z,9.70
2023-03-14T19:04:35.145Z,9.68
2023-03-14T19:07:10.390Z,9.65
2023-03-14T19:09:43.271Z,9.61
2023-03-14T19:12:18.332Z,9.59
2023-03-14T19:14:53.022Z,9.57
2023-03-14T19:17:26.679Z,9.53
2023-03-14T19:19:59.272Z,9.52
2023-03-14T19:22:32.731Z,9.50
2023-03-14T19:25:06.927Z,9.47
2023-03-14T19:27:40.906Z,9.41
2023-03-14T19:30:13.839Z,9.37
2023-03-14T19:32:46.497Z,9.32
2023-03-14T19:35:19.216Z,9.31
2023-03-14T19:37:51.920Z,9.27
2023-03-14T19:40:24.442Z,9.24
2023-03-14T19:42:57.688Z,9.20
2023-03-14T19:45:36.710Z,9.17
2023-03-14T19:48:08.826Z,9.16
2023-03-14T19:50:43.674Z,9.11
2023-03-14T19:53:16.805Z,9.11
2023-03-14T19:55:50.470Z,9.10
2023-03-14T19:58:24.800Z,9.06
2023-03-14T20:00:58.935Z,9.02
2023-03-14T20:03:32.661Z,8.98
2023-03-14T20:06:12.592Z,8.96
2023-03-14T20:08:45.495Z,8.91
2023-03-14T20:11:19.363Z,8.84
2023-03-14T20:13:53.963Z,8.78
2023-03-14T20:16:27.218Z,8.79
2023-03-14T20:18:59.968Z,8.76
2023-03-14T20:21:32.980Z,8.72
2023-03-14T20:24:06.940Z,8.67
2023-03-14T20:26:40.764Z,8.61
2023-03-14T20:29:15.098Z,8.57
2023-03-14T20:31:47.770Z,8.54
2023-03-14T20:34:20.274Z,8.51
2023-03-14T20:36:55.431Z,8.46
2023-03-14T20:39:28.528Z,8.44
2023-03-14T20:42:01.604Z,8.43
2023-03-14T20:44:36.442Z,8.41
2023-03-14T20:47:09.345Z,8.38
2023-03-14T20:49:43.275Z,8.36
2023-03-14T20:52:15.859Z,8.29
2023-03-14T20:54:48.292Z,8.29
2023-03-14T20:57:21.322Z,8.27
2023-03-14T20:59:54.199Z,8.24
2023-03-14T21:02:27.254Z,8.21
2023-03-14T21:05:00.235Z,8.19
2023-03-14T21:07:38.276Z,8.14
2023-03-14T21:10:33.373Z,8.11
2023-03-14T21:13:06.368Z,8.07
2023-03-14T21:15:39.673Z,8.03
2023-03-14T21:18:12.395Z,7.97
2023-03-14T21:20:45.470Z,7.96
2023-03-14T21:23:19.085Z,7.92
2023-03-14T21:25:52.360Z,7.89
2023-03-14T21:28:25.907Z,7.87
2023-03-14T21:31:07.410Z,7.86
2023-03-14T21:33:40.226Z,7.84
2023-03-14T21:36:13.039Z,7.82
2023-03-14T21:38:45.641Z,7.79
2023-03-14T21:41:18.108Z,7.74
2023-03-14T21:43:51.398Z,7.69
2023-03-14T21:46:26.132Z,7.66
2023-03-14T21:48:58.605Z,7.60
2023-03-14T21:51:32.757Z,7.61
2023-03-14T21:54:06.896Z,7.60
2023-03-14T21:56:39.781Z,7.56
2023-03-14T21:59:14.569Z,7.54
2023-03-14T22:01:47.627Z,7.50
2023-03-14T22:04:22.009Z,7.47
2023-03-14T22:06:54.170Z,7.42
2023-03-14T22:09:26.664Z,7.38
2023-03-14T22:12:00.672Z,7.32
2023-03-14T22:14:33.452Z,7.29
2023-03-14T22:17:06.196Z,7.27
2023-03-14T22:19:39.375Z,7.25
2023-03-14T22:22:12.105Z,7.25
2023-03-14T22:24:45.040Z,7.20
2023-03-14T22:27:17.817Z,7.22
2023-03-14T22:29:50.139Z,7.20
2023-03-14T22:32:23.229Z,7.17
2023-03-14T22:34:55.556Z,7.14
2023-03-14T22:37:28.130Z,7.18
2023-03-14T22:40:00.462Z,7.18
2023-03-14T22:42:33.090Z,7.13
2023-03-14T22:45:07.371Z,7.10
2023-03-14T22:47:39.822Z,7.08
2023-03-14T22:50:13.496Z,7.03
2023-03-14T22:52:46.044Z,7.02
2023-03-14T22:55:18.605Z,6.96
2023-03-14T22:57:53.811Z,6.93
2023-03-14T23:00:27.134Z,6.88
2023-03-14T23:03:01.078Z,6.89
2023-03-14T23:05:34.420Z,6.89
2023-03-14T23:08:07.045Z,6.87
2023-03-14T23:10:40.781Z,6.87
2023-03-14T23:13:16.437Z,6.86
2023-03-14T23:15:49.488Z,6.87
2023-03-14T23:18:24.767Z,6.86
2023-03-14T23:21:13.134Z,6.87
2023-03-14T23:23:48.255Z,6.81
2023-03-14T23:26:24.125Z,6.75
2023-03-14T23:28:57.285Z,6.71
2023-03-14T23:31:30.259Z,6.67
2023-03-14T23:34:02.847Z,6.64
2023-03-14T23:39:19.775Z,6.55
2023-03-14T23:41:52.179Z,6.51
2023-03-14T23:44:26.978Z,6.47
2023-03-14T23:46:59.385Z,6.46
2023-03-14T23:49:31.883Z,6.48
2023-03-14T23:52:04.948Z,6.46
2023-03-14T23:54:39.040Z,6.43
2023-03-14T23:57:11.540Z,6.43
2023-03-14T23:59:44.593Z,6.42
